createdAt,value
2023-05-21T00:02:06.160Z,13.10
2023-05-21T00:04:33.903Z,13.10
2023-05-21T00:07:01.353Z,13.20
2023-05-21T00:09:28.468Z,13.10
2023-05-21T00:11:55.570Z,13.10
2023-05-21T00:14:22.666Z,13.10
2023-05-21T00:16:49.944Z,13.10
2023-05-21T00:19:17.213Z,13.10
2023-05-21T00:21:46.041Z,13.10
2023-05-21T00:24:13.352Z,13.10
2023-05-21T00:26:40.648Z,13.00
2023-05-21T00:29:07.818Z,13.00
2023-05-21T00:31:35.138Z,13.00
2023-05-21T00:34:02.266Z,13.00
2023-05-21T00:36:30.957Z,13.00
2023-05-21T00:38:57.995Z,13.00
2023-05-21T00:41:26.072Z,13.10
2023-05-21T00:43:53.148Z,13.00
2023-05-21T00:46:22.570Z,13.00
2023-05-21T00:48:50.614Z,12.90
2023-05-21T00:51:18.849Z,12.80
2023-05-21T00:53:46.745Z,12.80
2023-05-21T00:56:14.102Z,12.80
2023-05-21T00:58:41.747Z,12.80
2023-05-21T01:01:13.888Z,12.80
2023-05-21T01:03:41.479Z,12.80
2023-05-21T01:06:09.853Z,12.80
2023-05-21T01:08:38.322Z,12.80
2023-05-21T01:11:06.615Z,12.80
2023-05-21T01:13:39.015Z,12.70
2023-05-21T01:16:06.869Z,12.80
2023-05-21T01:18:38.256Z,12.70
2023-05-21T01:21:07.463Z,12.70
2023-05-21T01:23:35.081Z,12.70
2023-05-21T01:26:02.202Z,12.70
2023-05-21T01:28:30.060Z,12.70
2023-05-21T01:31:01.533Z,12.70
2023-05-21T01:33:39.004Z,12.60
2023-05-21T01:36:11.865Z,12.60
2023-05-21T01:38:49.264Z,12.60
2023-05-21T01:41:19.492Z,12.60
2023-05-21T01:43:47.536Z,12.60
2023-05-21T01:46:18.051Z,12.60
2023-05-21T01:48:45.533Z,12.50
2023-05-21T01:51:13.083Z,12.50
2023-05-21T01:53:41.182Z,12.50
2023-05-21T01:56:08.696Z,12.50
2023-05-21T01:58:36.184Z,12.50
2023-05-21T02:01:04.666Z,12.40
2023-05-21T02:03:32.105Z,12.40
2023-05-21T02:05:59.244Z,12.40
2023-05-21T02:08:27.350Z,12.40
2023-05-21T02:13:25.092Z,12.40
2023-05-21T02:15:54.956Z,12.40
2023-05-21T02:18:23.240Z,12.40
2023-05-21T02:20:50.409Z,12.40
2023-05-21T02:23:17.576Z,12.40
2023-05-21T02:25:44.692Z,12.40
2023-05-21T02:28:12.863Z,12.40
2023-05-21T02:30:40.148Z,12.40
2023-05-21T02:33:09.329Z,12.40
2023-05-21T02:35:36.753Z,12.40
2023-05-21T02:38:04.256Z,12.40
2023-05-21T02:40:32.978Z,12.30
2023-05-21T02:43:00.062Z,12.30
2023-05-21T02:45:28.520Z,12.30
2023-05-21T02:47:55.802Z,12.30
2023-05-21T02:50:23.463Z,12.30
2023-05-21T02:52:55.993Z,12.30
2023-05-21T02:55:23.211Z,12.20
2023-05-21T02:57:50.901Z,12.20
2023-05-21T03:00:18.179Z,12.10
2023-05-21T03:02:45.461Z,12.10
2023-05-21T03:05:12.733Z,12.00
2023-05-21T03:07:39.826Z,12.00
2023-05-21T03:10:07.652Z,12.00
2023-05-21T03:12:34.703Z,12.00
2023-05-21T03:15:01.855Z,11.90
2023-05-21T03:17:28.987Z,11.90
2023-05-21T03:19:56.323Z,11.90
2023-05-21T03:22:23.438Z,11.90
2023-05-21T03:24:50.543Z,11.90
2023-05-21T03:27:18.881Z,11.80
2023-05-21T03:29:47.717Z,11.70
2023-05-21T03:32:15.986Z,11.70
2023-05-21T03:34:44.217Z,11.60
2023-05-21T03:37:11.702Z,11.50
2023-05-21T03:39:38.957Z,11.50
2023-05-21T03:42:06.730Z,11.50
2023-05-21T03:44:46.017Z,11.60
2023-05-21T03:47:36.347Z,11.50
2023-05-21T03:50:06.852Z,11.50
2023-05-21T03:52:33.962Z,11.40
2023-05-21T03:55:01.948Z,11.40
2023-05-21T03:57:29.357Z,11.40
2023-05-21T03:59:59.054Z,11.40
2023-05-21T04:02:27.590Z,11.40
2023-05-21T04:04:56.033Z,11.40
2023-05-21T04:07:23.941Z,11.40
2023-05-21T04:09:51.321Z,11.40
2023-05-21T04:12:20.382Z,11.40
2023-05-21T04:14:48.131Z,11.50
2023-05-21T04:17:15.290Z,11.50
2023-05-21T04:19:42.459Z,11.50
2023-05-21T04:22:12.164Z,11.60
2023-05-21T04:24:39.622Z,11.70
2023-05-21T04:27:33.024Z,11.80
2023-05-21T04:30:00.500Z,11.90
2023-05-21T04:32:28.672Z,12.00
2023-05-21T04:34:55.836Z,12.10
2023-05-21T04:37:24.742Z,12.10
2023-05-21T04:39:52.010Z,12.20
2023-05-21T04:42:19.560Z,12.20
2023-05-21T04:44:46.636Z,12.20
2023-05-21T04:47:15.023Z,12.20
2023-05-21T04:49:42.732Z,12.20
2023-05-21T04:52:09.744Z,12.30
2023-05-21T04:54:39.057Z,12.20
2023-05-21T04:57:06.955Z,12.20
2023-05-21T04:59:35.449Z,12.20
2023-05-21T05:02:02.867Z,12.20
2023-05-21T05:04:30.052Z,12.20
2023-05-21T05:06:57.286Z,12.10
2023-05-21T05:09:25.330Z,12.20
2023-05-21T05:11:53.124Z,12.20
2023-05-21T05:14:20.261Z,12.20
2023-05-21T05:16:48.425Z,12.20
2023-05-21T05:19:16.487Z,12.20
2023-05-21T05:21:44.581Z,12.20
2023-05-21T05:24:12.140Z,12.40
2023-05-21T05:26:39.184Z,12.50
2023-05-21T05:29:06.302Z,12.30
2023-05-21T05:31:33.700Z,12.10
2023-05-21T05:34:00.973Z,12.20
2023-05-21T05:36:29.174Z,12.10
2023-05-21T05:38:56.472Z,12.20
2023-05-21T05:41:23.698Z,12.20
2023-05-21T05:43:51.131Z,12.40
2023-05-21T05:46:20.219Z,12.50
2023-05-21T05:48:47.631Z,12.60
2023-05-21T05:51:17.195Z,12.60
2023-05-21T05:53:44.253Z,12.60
2023-05-21T05:56:11.425Z,12.40
2023-05-21T05:58:39.175Z,12.40
2023-05-21T06:01:17.664Z,12.40
2023-05-21T06:03:45.175Z,12.50
2023-05-21T06:06:15.595Z,12.70
2023-05-21T06:08:43.267Z,12.80
2023-05-21T06:11:11.441Z,12.60
2023-05-21T06:13:38.536Z,12.60
2023-05-21T06:16:07.697Z,12.70
2023-05-21T06:18:35.322Z,12.80
2023-05-21T06:21:02.558Z,12.80
2023-05-21T06:23:32.711Z,12.80
2023-05-21T06:26:00.124Z,12.70
2023-05-21T06:28:27.481Z,12.90
2023-05-21T06:30:55.194Z,13.10
2023-05-21T06:33:23.333Z,13.30
2023-05-21T06:35:50.709Z,13.40
2023-05-21T06:38:17.864Z,13.40
2023-05-21T06:40:47.497Z,13.10
2023-05-21T06:43:22.397Z,13.20
2023-05-21T06:46:12.797Z,13.40
2023-05-21T06:48:41.133Z,13.60
2023-05-21T06:51:08.246Z,13.70
2023-05-21T06:53:35.490Z,13.80
2023-05-21T06:56:02.657Z,13.90
2023-05-21T06:58:36.797Z,13.80
2023-05-21T07:01:05.149Z,13.80
2023-05-21T07:03:32.550Z,14.00
2023-05-21T07:05:59.825Z,14.00
2023-05-21T07:08:27.345Z,14.20
2023-05-21T07:10:56.437Z,14.10
2023-05-21T07:13:23.879Z,13.90
2023-05-21T07:15:51.005Z,14.10
2023-05-21T07:18:19.571Z,14.00
2023-05-21T07:20:46.648Z,13.50
2023-05-21T07:23:16.228Z,13.50
2023-05-21T07:25:44.337Z,13.90
2023-05-21T07:28:13.523Z,14.00
2023-05-21T07:30:40.650Z,14.50
2023-05-21T07:33:12.857Z,14.90
2023-05-21T07:35:40.945Z,14.70
2023-05-21T07:38:08.180Z,14.80
2023-05-21T07:40:35.278Z,15.20
2023-05-21T07:43:03.783Z,15.20
2023-05-21T07:45:32.334Z,15.40
2023-05-21T07:47:59.630Z,15.50
2023-05-21T07:50:27.968Z,15.90
2023-05-21T07:52:55.174Z,16.00
2023-05-21T07:55:22.502Z,16.10
2023-05-21T07:57:52.407Z,16.10
2023-05-21T08:00:25.196Z,16.40
2023-05-21T08:02:55.427Z,16.50
2023-05-21T08:05:23.619Z,16.40
2023-05-21T08:07:51.152Z,16.90
2023-05-21T08:10:19.585Z,17.10
2023-05-21T08:12:48.949Z,17.40
2023-05-21T08:15:16.225Z,16.80
2023-05-21T08:17:46.056Z,16.70
2023-05-21T08:20:15.219Z,16.60
2023-05-21T08:22:44.384Z,16.80
2023-05-21T08:25:12.118Z,16.90
2023-05-21T08:27:39.465Z,17.10
2023-05-21T08:30:07.787Z,16.80
2023-05-21T08:32:35.650Z,17.00
2023-05-21T08:35:03.148Z,17.30
2023-05-21T08:37:45.888Z,17.30
2023-05-21T08:40:18.536Z,17.40
2023-05-21T08:42:48.740Z,17.90
2023-05-21T08:45:23.903Z,17.80
2023-05-21T08:47:59.300Z,18.10
2023-05-21T08:50:31.502Z,18.20
2023-05-21T08:53:07.492Z,18.20
2023-05-21T08:55:42.824Z,18.20
2023-05-21T08:58:11.238Z,18.00
2023-05-21T09:00:38.412Z,18.00
2023-05-21T09:03:11.556Z,18.00
2023-05-21T09:05:42.087Z,18.20
2023-05-21T09:08:41.292Z,18.80
2023-05-21T09:11:16.819Z,19.40
2023-05-21T09:13:52.617Z,19.40
2023-05-21T09:16:26.100Z,19.90
2023-05-21T09:18:53.434Z,20.40
2023-05-21T09:21:31.512Z,19.90
2023-05-21T09:24:10.979Z,20.00
2023-05-21T09:26:38.374Z,20.10
2023-05-21T09:29:07.229Z,20.40
2023-05-21T09:31:34.424Z,20.40
2023-05-21T09:34:01.712Z,20.30
2023-05-21T09:36:32.077Z,20.90
2023-05-21T09:39:00.362Z,20.60
2023-05-21T09:41:36.309Z,20.70
2023-05-21T09:44:04.859Z,20.20
2023-05-21T09:46:43.191Z,20.60
2023-05-21T09:49:24.978Z,21.10
2023-05-21T09:51:57.325Z,21.50
2023-05-21T09:54:26.008Z,22.10
2023-05-21T09:56:53.677Z,22.50
2023-05-21T09:59:21.549Z,22.30
2023-05-21T10:01:52.614Z,22.90
2023-05-21T10:04:21.494Z,23.10
2023-05-21T10:06:50.953Z,22.80
2023-05-21T10:09:20.051Z,22.80
2023-05-21T10:11:49.679Z,22.20
2023-05-21T10:14:27.576Z,22.70
2023-05-21T10:16:55.997Z,23.00
2023-05-21T10:19:24.997Z,22.10
2023-05-21T10:21:53.814Z,22.50
2023-05-21T10:24:22.120Z,23.00
2023-05-21T10:26:49.512Z,23.70
2023-05-21T10:29:19.561Z,23.10
2023-05-21T10:31:49.931Z,22.70
2023-05-21T10:34:17.937Z,22.90
2023-05-21T10:36:46.250Z,23.30
2023-05-21T10:39:14.675Z,22.90
2023-05-21T10:42:00.305Z,23.30
2023-05-21T10:44:56.778Z,22.70
2023-05-21T10:48:13.741Z,23.00
2023-05-21T10:51:20.353Z,23.60
2023-05-21T10:54:31.995Z,24.40
2023-05-21T10:57:28.015Z,24.10
2023-05-21T10:59:57.768Z,23.40
2023-05-21T11:02:26.675Z,24.40
2023-05-21T11:05:00.859Z,25.30
2023-05-21T11:07:58.787Z,25.90
2023-05-21T11:10:40.618Z,26.10
2023-05-21T11:13:19.776Z,26.30
2023-05-21T11:16:21.175Z,26.70
2023-05-21T11:18:57.936Z,27.00
2023-05-21T11:21:30.527Z,26.40
2023-05-21T11:24:02.819Z,25.60
2023-05-21T11:27:08.840Z,26.10
2023-05-21T11:29:44.610Z,25.50
2023-05-21T11:32:13.791Z,24.90
2023-05-21T11:34:48.244Z,25.30
2023-05-21T11:37:25.227Z,25.10
2023-05-21T11:39:52.667Z,26.30
2023-05-21T11:42:38.960Z,25.90
2023-05-21T11:45:07.282Z,24.70
2023-05-21T11:47:34.381Z,25.40
2023-05-21T11:50:03.479Z,26.30
2023-05-21T11:52:31.984Z,26.70
2023-05-21T11:54:59.974Z,26.70
2023-05-21T11:57:32.012Z,26.40
2023-05-21T12:00:01.475Z,26.40
2023-05-21T12:02:33.305Z,27.20
2023-05-21T12:05:00.806Z,26.80
2023-05-21T12:07:30.073Z,26.10
2023-05-21T12:09:57.741Z,25.90
2023-05-21T12:12:38.619Z,26.90
2023-05-21T12:15:13.674Z,27.10
2023-05-21T12:17:41.415Z,27.80
2023-05-21T12:20:10.809Z,27.90
2023-05-21T12:22:42.791Z,27.90
2023-05-21T12:25:10.760Z,26.70
2023-05-21T12:27:37.826Z,26.00
2023-05-21T12:30:05.825Z,25.90
2023-05-21T12:32:33.153Z,26.30
2023-05-21T12:35:00.348Z,26.00
2023-05-21T12:37:32.679Z,25.80
2023-05-21T12:40:01.540Z,25.90
2023-05-21T12:42:30.797Z,27.40
2023-05-21T12:44:58.316Z,26.60
2023-05-21T12:47:27.329Z,26.40
2023-05-21T12:50:00.355Z,26.10
2023-05-21T12:52:27.833Z,26.00
2023-05-21T12:54:58.949Z,26.50
2023-05-21T12:57:28.305Z,26.30
2023-05-21T12:59:57.442Z,26.70
2023-05-21T13:02:26.302Z,27.60
2023-05-21T13:05:01.790Z,27.50
2023-05-21T13:07:33.701Z,27.90
2023-05-21T13:10:02.150Z,27.70
2023-05-21T13:12:31.251Z,26.90
2023-05-21T13:15:00.847Z,27.30
2023-05-21T13:17:28.591Z,27.80
2023-05-21T13:20:13.095Z,27.80
2023-05-21T13:22:48.108Z,27.40
2023-05-21T13:25:24.649Z,27.40
2023-05-21T13:27:53.253Z,27.50
2023-05-21T13:30:21.327Z,28.10
2023-05-21T13:32:49.144Z,27.50
2023-05-21T13:35:16.905Z,27.00
2023-05-21T13:37:44.682Z,26.80
2023-05-21T13:40:16.516Z,28.20
2023-05-21T13:42:45.600Z,27.90
2023-05-21T13:45:15.206Z,28.10
2023-05-21T13:47:43.546Z,28.30
2023-05-21T13:50:11.223Z,28.30
2023-05-21T13:52:38.795Z,28.50
2023-05-21T13:55:06.665Z,28.40
2023-05-21T13:57:36.255Z,28.20
2023-05-21T14:00:04.774Z,28.80
2023-05-21T14:02:35.012Z,28.50
2023-05-21T14:05:02.492Z,28.60
2023-05-21T14:07:29.732Z,27.90
2023-05-21T14:09:56.844Z,28.60
2023-05-21T14:12:24.123Z,28.20
2023-05-21T14:14:51.366Z,28.00
2023-05-21T14:17:18.495Z,27.90
2023-05-21T14:19:45.570Z,27.60
2023-05-21T14:22:13.230Z,27.60
2023-05-21T14:24:40.313Z,27.70
2023-05-21T14:27:07.476Z,27.70
2023-05-21T14:29:34.655Z,27.50
2023-05-21T14:32:01.833Z,27.40
2023-05-21T14:34:28.979Z,27.50
2023-05-21T14:36:56.158Z,27.60
2023-05-21T14:39:23.305Z,27.40
2023-05-21T14:41:50.650Z,27.40
2023-05-21T14:44:17.797Z,27.30
2023-05-21T14:46:44.957Z,27.30
2023-05-21T14:49:12.326Z,27.60
2023-05-21T14:51:39.411Z,27.50
2023-05-21T14:54:06.559Z,27.70
2023-05-21T14:56:33.782Z,28.10
2023-05-21T14:59:01.013Z,28.30
2023-05-21T15:01:28.399Z,28.40
2023-05-21T15:03:57.064Z,28.30
2023-05-21T15:06:24.438Z,28.20
2023-05-21T15:08:51.545Z,28.20
2023-05-21T15:11:18.685Z,27.80
2023-05-21T15:13:46.493Z,27.40
2023-05-21T15:16:13.681Z,27.50
2023-05-21T15:18:40.822Z,27.50
2023-05-21T15:21:08.115Z,27.40
2023-05-21T15:23:35.199Z,27.00
2023-05-21T15:26:02.311Z,26.90
2023-05-21T15:28:29.449Z,26.60
2023-05-21T15:30:56.722Z,26.60
2023-05-21T15:33:23.795Z,26.40
2023-05-21T15:35:51.240Z,26.40
2023-05-21T15:38:18.526Z,26.20
2023-05-21T15:40:45.709Z,25.90
2023-05-21T15:43:12.818Z,25.90
2023-05-21T15:45:40.116Z,25.90
2023-05-21T15:48:07.649Z,25.70
2023-05-21T15:50:38.230Z,25.60
2023-05-21T15:53:05.380Z,25.40
2023-05-21T15:55:33.719Z,25.20
2023-05-21T15:58:02.442Z,25.10
2023-05-21T16:00:29.896Z,25.00
2023-05-21T16:02:57.078Z,24.80
2023-05-21T16:05:24.293Z,24.70
2023-05-21T16:07:51.558Z,24.60
2023-05-21T16:10:19.073Z,24.50
2023-05-21T16:12:46.180Z,24.60
2023-05-21T16:15:13.342Z,24.70
2023-05-21T16:17:40.868Z,24.70
2023-05-21T16:20:09.746Z,24.60
2023-05-21T16:22:36.902Z,24.60
2023-05-21T16:25:04.484Z,24.50
2023-05-21T16:27:31.634Z,24.40
2023-05-21T16:29:58.813Z,24.30
2023-05-21T16:32:26.135Z,24.40
2023-05-21T16:34:53.343Z,24.50
2023-05-21T16:37:21.164Z,24.70
2023-05-21T16:39:48.478Z,24.90
2023-05-21T16:42:15.630Z,25.40
2023-05-21T16:44:42.997Z,25.80
2023-05-21T16:47:10.046Z,26.10
2023-05-21T16:49:37.722Z,26.30
2023-05-21T16:52:05.392Z,26.10
2023-05-21T16:54:33.489Z,26.20
2023-05-21T16:57:01.144Z,26.40
2023-05-21T16:59:28.864Z,26.30
2023-05-21T17:01:56.057Z,26.20
2023-05-21T17:04:23.240Z,26.00
2023-05-21T17:06:50.331Z,26.00
2023-05-21T17:09:18.822Z,25.70
2023-05-21T17:11:46.064Z,25.60
2023-05-21T17:14:23.342Z,25.20
2023-05-21T17:17:00.121Z,25.00
2023-05-21T17:19:27.323Z,24.90
2023-05-21T17:21:57.443Z,24.40
2023-05-21T17:24:24.738Z,24.50
2023-05-21T17:26:53.106Z,24.40
2023-05-21T17:29:20.582Z,24.40
2023-05-21T17:31:47.811Z,24.20
2023-05-21T17:34:15.184Z,24.10
2023-05-21T17:36:42.214Z,23.90
2023-05-21T17:39:09.335Z,23.90
2023-05-21T17:41:36.430Z,23.60
2023-05-21T17:44:04.138Z,23.50
2023-05-21T17:46:31.199Z,23.50
2023-05-21T17:48:58.264Z,23.30
2023-05-21T17:51:25.435Z,23.00
2023-05-21T17:53:52.512Z,23.00
2023-05-21T17:56:19.636Z,22.80
2023-05-21T17:58:46.686Z,22.70
2023-05-21T18:01:13.882Z,22.50
2023-05-21T18:03:41.045Z,22.30
2023-05-21T18:06:09.543Z,22.30
2023-05-21T18:08:36.877Z,22.10
2023-05-21T18:11:04.111Z,21.90
2023-05-21T18:13:31.481Z,21.80
2023-05-21T18:15:59.120Z,21.70
2023-05-21T18:18:26.316Z,21.50
2023-05-21T18:20:53.596Z,21.40
2023-05-21T18:23:20.862Z,21.40
2023-05-21T18:25:48.229Z,21.20
2023-05-21T18:28:15.534Z,21.10
2023-05-21T18:30:43.239Z,21.10
2023-05-21T18:33:12.656Z,21.00
2023-05-21T18:35:41.717Z,20.90
2023-05-21T18:38:11.865Z,20.70
2023-05-21T18:40:39.359Z,20.70
2023-05-21T18:43:06.525Z,20.70
2023-05-21T18:45:34.099Z,20.60
2023-05-21T18:48:01.435Z,20.40
2023-05-21T18:50:28.782Z,20.30
2023-05-21T18:52:56.297Z,20.30
2023-05-21T18:55:23.832Z,20.10
2023-05-21T18:57:51.444Z,20.10
2023-05-21T19:00:19.260Z,20.00
2023-05-21T19:02:46.935Z,19.70
2023-05-21T19:05:14.511Z,19.70
2023-05-21T19:07:41.993Z,19.60
2023-05-21T19:10:11.362Z,19.60
2023-05-21T19:12:39.597Z,19.60
2023-05-21T19:15:07.863Z,19.50
2023-05-21T19:17:36.438Z,19.50
2023-05-21T19:20:05.630Z,19.40
2023-05-21T19:22:37.059Z,19.30
2023-05-21T19:25:04.675Z,19.30
2023-05-21T19:27:31.883Z,19.20
2023-05-21T19:29:59.202Z,19.30
2023-05-21T19:32:26.342Z,19.20
2023-05-21T19:34:53.468Z,18.90
2023-05-21T19:37:20.628Z,19.00
2023-05-21T19:39:50.168Z,19.00
2023-05-21T19:42:19.914Z,19.00
2023-05-21T19:44:47.140Z,18.90
2023-05-21T19:47:15.213Z,18.60
2023-05-21T19:49:42.397Z,18.50
2023-05-21T19:52:10.785Z,18.60
2023-05-21T19:54:37.994Z,18.50
2023-05-21T19:57:05.930Z,18.40
2023-05-21T19:59:33.098Z,18.30
2023-05-21T20:02:00.415Z,18.30
2023-05-21T20:04:27.697Z,18.40
2023-05-21T20:06:55.027Z,18.40
2023-05-21T20:09:22.163Z,18.20
2023-05-21T20:11:49.289Z,18.00
2023-05-21T20:14:16.457Z,17.90
2023-05-21T20:16:47.150Z,18.00
2023-05-21T20:19:15.353Z,18.00
2023-05-21T20:21:42.909Z,17.90
2023-05-21T20:24:11.429Z,18.00
2023-05-21T20:26:39.990Z,18.00
2023-05-21T20:29:08.105Z,17.90
2023-05-21T20:31:35.912Z,18.10
2023-05-21T20:34:08.866Z,18.00
2023-05-21T20:36:36.667Z,17.90
2023-05-21T20:39:04.175Z,17.90
2023-05-21T20:41:37.737Z,17.80
2023-05-21T20:44:06.271Z,17.70
2023-05-21T20:46:34.333Z,17.50
2023-05-21T20:49:01.633Z,17.40
2023-05-21T20:51:28.797Z,17.30
2023-05-21T20:53:57.100Z,17.10
2023-05-21T20:56:40.053Z,17.10
2023-05-21T20:59:10.449Z,17.00
2023-05-21T21:01:38.431Z,17.10
2023-05-21T21:04:05.876Z,17.10
2023-05-21T21:06:33.912Z,17.00
2023-05-21T21:09:01.144Z,16.90
2023-05-21T21:11:28.220Z,17.00
2023-05-21T21:13:55.411Z,17.00
2023-05-21T21:16:22.497Z,17.00
2023-05-21T21:18:49.879Z,17.00
2023-05-21T21:21:17.023Z,17.10
2023-05-21T21:23:44.361Z,17.00
2023-05-21T21:26:11.427Z,17.00
2023-05-21T21:28:38.706Z,17.00
2023-05-21T21:31:05.896Z,16.90
2023-05-21T21:33:33.099Z,16.90
2023-05-21T21:36:00.676Z,16.90
2023-05-21T21:38:27.815Z,16.80
2023-05-21T21:40:54.928Z,16.80
2023-05-21T21:43:22.037Z,16.90
2023-05-21T21:45:49.152Z,17.00
2023-05-21T21:48:16.841Z,16.90
2023-05-21T21:50:43.966Z,16.90
2023-05-21T21:53:12.712Z,16.90
2023-05-21T21:55:39.916Z,16.90
2023-05-21T21:58:07.112Z,16.90
2023-05-21T22:00:34.255Z,16.90
2023-05-21T22:03:01.442Z,16.80
2023-05-21T22:05:30.955Z,16.90
2023-05-21T22:07:58.271Z,16.90
2023-05-21T22:10:25.515Z,16.90
2023-05-21T22:12:52.743Z,16.90
2023-05-21T22:15:27.418Z,17.00
2023-05-21T22:17:55.184Z,17.00
2023-05-21T22:20:22.386Z,17.00
2023-05-21T22:22:50.172Z,16.90
2023-05-21T22:25:17.565Z,16.90
2023-05-21T22:27:44.736Z,17.10
2023-05-21T22:30:12.368Z,17.20
2023-05-21T22:32:39.603Z,17.20
2023-05-21T22:35:07.888Z,17.30
2023-05-21T22:37:37.391Z,17.10
2023-05-21T22:40:06.771Z,16.60
2023-05-21T22:42:35.811Z,16.50
2023-05-21T22:45:03.573Z,16.70
2023-05-21T22:47:32.361Z,16.50
2023-05-21T22:50:00.841Z,16.30
2023-05-21T22:52:28.874Z,16.30
2023-05-21T22:54:57.892Z,16.30
2023-05-21T22:57:25.094Z,16.50
2023-05-21T22:59:52.192Z,16.40
2023-05-21T23:02:19.397Z,16.40
2023-05-21T23:04:48.028Z,16.40
2023-05-21T23:07:15.947Z,16.50
2023-05-21T23:09:42.966Z,16.40
2023-05-21T23:12:10.407Z,16.40
2023-05-21T23:14:37.571Z,16.20
2023-05-21T23:17:05.708Z,16.20
2023-05-21T23:19:33.062Z,16.20
2023-05-21T23:22:00.559Z,16.10
2023-05-21T23:24:29.531Z,16.10
2023-05-21T23:27:01.893Z,16.10
2023-05-21T23:29:32.176Z,16.10
2023-05-21T23:32:00.955Z,16.00
2023-05-21T23:34:28.386Z,15.90
2023-05-21T23:36:55.933Z,15.80
2023-05-21T23:39:24.265Z,15.90
2023-05-21T23:41:51.338Z,15.90
2023-05-21T23:44:20.362Z,15.80
2023-05-21T23:46:47.459Z,15.70
2023-05-21T23:49:15.034Z,15.70
2023-05-21T23:51:42.276Z,15.70
2023-05-21T23:54:09.566Z,15.70
2023-05-21T23:56:36.672Z,15.70
2023-05-21T23:59:03.774Z,15.80
